Time;durP1;ratioP1;P1;durP2;ratioP2;P2;SDS_P1;SDS_P2;PMS_P1;PMS_P2;Temp;Humidity;BMP_temperature;BMP_pressure;BME280_temperature;BME280_humidity;BME280_pressure;Samples;Min_cycle;Max_cycle;Signal;HPM_P1;HPM_P2
2024/04/02 00:00:32;;;;;;;0.70;0.35;;;;;;;21.86;34.51;99141.19;4535541;28;20034;-50
2024/04/02 00:02:43;;;;;;;0.90;0.50;;;;;;;21.86;34.47;99140.34;4534975;28;20030;-52
2024/04/02 00:04:53;;;;;;;0.70;0.47;;;;;;;21.85;34.66;99139.50;4534802;28;20034;-50
2024/04/02 00:07:03;;;;;;;0.52;0.45;;;;;;;21.85;34.44;99141.59;4532630;28;21019;-50
2024/04/02 00:09:14;;;;;;;0.50;0.40;;;;;;;21.84;34.38;99140.75;4535530;28;20034;-50
2024/04/02 00:11:24;;;;;;;0.50;0.50;;;;;;;21.84;34.43;99146.50;4535836;28;20536;-53
2024/04/02 00:13:35;;;;;;;0.50;0.50;;;;;;;21.83;34.33;99142.00;4533906;28;20072;-52
2024/04/02 00:15:47;;;;;;;0.32;0.32;;;;;;;21.83;34.20;99147.75;4535073;28;20048;-52
2024/04/02 00:18:01;;;;;;;0.77;0.40;;;;;;;21.83;34.22;99147.75;4534268;28;20037;-52
2024/04/02 00:20:12;;;;;;;0.40;0.30;;;;;;;21.82;34.54;99146.09;4534208;28;20137;-49
2024/04/02 00:22:22;;;;;;;0.60;0.45;;;;;;;21.82;34.50;99148.13;4535035;28;20029;-50
2024/04/02 00:24:33;;;;;;;0.32;0.32;;;;;;;21.82;34.25;99151.81;4534189;28;20579;-52
2024/04/02 00:26:43;;;;;;;0.40;0.30;;;;;;;21.82;34.52;99156.75;4534726;28;20478;-50
2024/04/02 00:28:53;;;;;;;0.50;0.30;;;;;;;21.81;34.65;99155.94;4533968;28;20025;-50
2024/04/02 00:31:07;;;;;;;0.73;0.40;;;;;;;21.81;34.41;99153.06;4534751;28;20310;-49
2024/04/02 00:33:18;;;;;;;0.50;0.50;;;;;;;21.81;34.23;99164.56;4534762;28;20037;-54
2024/04/02 00:35:28;;;;;;;0.40;0.40;;;;;;;21.81;34.59;99167.44;4534471;28;20073;-50
2024/04/02 00:37:39;;;;;;;0.32;0.32;;;;;;;21.81;34.52;99167.44;4534419;28;20416;-51
2024/04/02 00:39:50;;;;;;;0.30;0.30;;;;;;;21.80;34.35;99162.91;4534573;28;20091;-52
2024/04/02 00:42:00;;;;;;;0.50;0.30;;;;;;;21.81;34.10;99172.34;4535290;28;20033;-51
2024/04/02 00:44:10;;;;;;;0.75;0.50;;;;;;;21.81;33.78;99167.44;4533128;28;20033;-50
2024/04/02 00:46:21;;;;;;;0.30;0.30;;;;;;;21.81;34.35;99178.09;4536019;28;20067;-53
2024/04/02 00:48:31;;;;;;;0.52;0.40;;;;;;;21.80;34.34;99177.25;4533511;28;20041;-50
2024/04/02 00:50:42;;;;;;;0.47;0.30;;;;;;;21.79;34.14;99192.84;4519484;28;20080;-50
2024/04/02 00:52:53;;;;;;;0.77;0.40;;;;;;;21.80;34.11;99196.56;4519596;28;20041;-52
2024/04/02 00:55:04;;;;;;;0.40;0.40;;;;;;;21.78;34.11;99191.22;4533630;28;20021;-50
2024/04/02 00:57:15;;;;;;;0.52;0.30;;;;;;;21.78;34.01;99194.09;4534645;28;20037;-54
2024/04/02 00:59:26;;;;;;;0.57;0.40;;;;;;;21.79;34.13;99195.72;4533643;28;20041;-50
2024/04/02 01:01:37;;;;;;;0.50;0.38;;;;;;;21.79;34.32;99206.38;4534792;28;20040;-53
2024/04/02 01:03:47;;;;;;;0.45;0.38;;;;;;;21.79;34.03;99206.38;4533125;28;20025;-51
2024/04/02 01:06:00;;;;;;;0.40;0.40;;;;;;;21.77;34.02;99198.19;4532748;28;20042;-50
2024/04/02 01:08:11;;;;;;;0.35;0.30;;;;;;;21.78;33.82;99204.75;4535211;28;20029;-50
2024/04/02 01:10:21;;;;;;;0.50;0.38;;;;;;;21.76;33.90;99199.44;4534629;28;20034;-53
2024/04/02 01:12:32;;;;;;;0.25;0.25;;;;;;;21.74;33.67;99204.72;4519794;28;20048;-49
2024/04/02 01:14:43;;;;;;;0.45;0.43;;;;;;;21.76;33.87;99204.34;4534160;28;20021;-50
2024/04/02 01:16:53;;;;;;;0.30;0.28;;;;;;;21.75;33.91;99209.28;4534017;28;24234;-50
2024/04/02 01:19:03;;;;;;;0.25;0.22;;;;;;;21.75;33.86;99197.78;4532233;28;20049;-50
2024/04/02 01:21:15;;;;;;;0.30;0.30;;;;;;;21.76;33.74;99210.09;4533956;28;20069;-51
2024/04/02 01:23:25;;;;;;;0.43;0.40;;;;;;;21.75;33.93;99196.94;4534479;28;20057;-50
2024/04/02 01:25:36;;;;;;;0.65;0.30;;;;;;;21.75;33.92;99206.41;4517441;28;20467;-53
2024/04/02 01:27:46;;;;;;;0.43;0.22;;;;;;;21.74;33.39;99213.34;4532247;28;20045;-53
2024/04/02 01:29:56;;;;;;;0.68;0.40;;;;;;;21.74;33.78;99207.59;4532951;28;20485;-52
2024/04/02 01:32:07;;;;;;;0.43;0.40;;;;;;;21.74;33.85;99216.19;4533520;28;20112;-50
2024/04/02 01:34:18;;;;;;;0.40;0.30;;;;;;;21.72;33.81;99218.66;4533235;28;20037;-50
2024/04/02 01:36:28;;;;;;;0.82;0.40;;;;;;;21.73;33.79;99213.75;4533853;28;20044;-50
2024/04/02 01:38:39;;;;;;;0.30;0.30;;;;;;;21.73;33.63;99211.69;4532968;28;20041;-51
2024/04/02 01:40:49;;;;;;;0.30;0.30;;;;;;;21.72;33.33;99215.78;4533785;28;20370;-49
2024/04/02 01:42:59;;;;;;;0.40;0.30;;;;;;;21.72;33.94;99215.78;4532820;28;20087;-51
2024/04/02 01:45:10;;;;;;;0.47;0.30;;;;;;;21.71;33.55;99214.16;4517302;28;20064;-53
2024/04/02 01:47:20;;;;;;;0.30;0.30;;;;;;;21.72;34.01;99218.66;4533784;28;20025;-50
2024/04/02 01:49:31;;;;;;;0.85;0.30;;;;;;;21.73;33.83;99225.22;4533682;28;20029;-49
2024/04/02 01:51:42;;;;;;;0.30;0.30;;;;;;;21.72;33.60;99221.53;4532593;28;20032;-50
2024/04/02 01:53:52;;;;;;;0.60;0.38;;;;;;;21.70;33.67;99221.13;4532236;28;20143;-50
2024/04/02 01:56:03;;;;;;;1.67;0.40;;;;;;;21.70;34.08;99224.00;4531635;28;20116;-52
2024/04/02 01:58:14;;;;;;;0.35;0.30;;;;;;;21.70;33.69;99223.19;4532737;28;20028;-54
2024/04/02 02:00:24;;;;;;;0.85;0.35;;;;;;;21.70;34.13;99223.19;4532911;28;20049;-49
2024/04/02 02:02:35;;;;;;;0.50;0.30;;;;;;;21.70;34.12;99235.50;4533256;28;20398;-51
2024/04/02 02:04:45;;;;;;;0.30;0.30;;;;;;;21.69;34.14;99222.34;4532183;28;20482;-51
2024/04/02 02:06:55;;;;;;;0.50;0.30;;;;;;;21.69;33.95;99222.34;4531154;28;20496;-51
2024/04/02 02:09:06;;;;;;;0.30;0.30;;;;;;;21.70;33.78;99226.03;4533110;28;20076;-52
2024/04/02 02:11:16;;;;;;;0.32;0.30;;;;;;;21.69;33.75;99233.03;4534747;28;20028;-50
2024/04/02 02:13:27;;;;;;;1.00;0.45;;;;;;;21.68;33.97;99229.31;4532742;28;20120;-51
2024/04/02 02:15:37;;;;;;;0.40;0.32;;;;;;;21.68;33.67;99225.63;4533770;28;20040;-51
2024/04/02 02:17:48;;;;;;;0.80;0.30;;;;;;;21.68;33.63;99237.94;4532824;28;20025;-49
2024/04/02 02:19:58;;;;;;;0.52;0.22;;;;;;;21.68;34.16;99240.81;4533151;28;20456;-50
2024/04/02 02:22:08;;;;;;;0.65;0.30;;;;;;;21.67;33.96;99247.81;4517809;28;20037;-49
2024/04/02 02:24:19;;;;;;;1.33;0.40;;;;;;;21.68;33.95;99243.69;4533515;28;20482;-52
2024/04/02 02:26:29;;;;;;;0.55;0.35;;;;;;;21.64;33.62;99234.25;4518607;28;20513;-54
2024/04/02 02:28:40;;;;;;;0.60;0.32;;;;;;;21.66;33.61;99257.63;4532582;28;20037;-51
2024/04/02 02:30:50;;;;;;;0.93;0.30;;;;;;;21.66;33.68;99243.25;4525316;28;20103;-50
2024/04/02 02:33:00;;;;;;;0.60;0.30;;;;;;;21.66;33.65;99257.63;4532113;28;29308;-50
2024/04/02 02:35:11;;;;;;;0.50;0.30;;;;;;;21.66;33.61;99251.06;4534959;28;20041;-50
2024/04/02 02:37:21;;;;;;;0.38;0.28;;;;;;;21.65;33.76;99255.16;4532302;28;30600;-51
2024/04/02 02:39:32;;;;;;;0.40;0.32;;;;;;;21.65;33.49;99250.25;4531341;28;20052;-50
2024/04/02 02:41:45;;;;;;;0.30;0.28;;;;;;;21.67;33.65;99261.31;4532477;28;20041;-51
2024/04/02 02:43:57;;;;;;;0.47;0.40;;;;;;;21.65;33.65;99256.00;4531712;28;20158;-50
2024/04/02 02:46:07;;;;;;;0.70;0.28;;;;;;;21.64;33.65;99259.28;4532196;28;20036;-51
2024/04/02 02:48:18;;;;;;;1.05;0.40;;;;;;;21.64;33.46;99260.09;4533180;28;20041;-51
2024/04/02 02:50:28;;;;;;;0.38;0.30;;;;;;;21.64;33.80;99259.28;4532465;28;20040;-50
2024/04/02 02:52:39;;;;;;;0.98;0.35;;;;;;;21.63;33.42;99258.44;4531174;28;20449;-52
2024/04/02 02:54:49;;;;;;;0.45;0.30;;;;;;;21.62;33.68;99262.56;4533385;28;20684;-50
2024/04/02 02:56:59;;;;;;;1.33;0.35;;;;;;;21.63;33.54;99269.94;4532942;28;20107;-51
2024/04/02 02:59:10;;;;;;;0.38;0.30;;;;;;;21.62;33.73;99267.47;4533652;28;20049;-50
2024/04/02 03:01:20;;;;;;;0.85;0.50;;;;;;;21.62;33.70;99267.47;4533318;28;20057;-53
2024/04/02 03:03:31;;;;;;;0.30;0.25;;;;;;;21.61;33.82;99260.88;4531840;28;20103;-52
2024/04/02 03:05:52;;;;;;;0.40;0.30;;;;;;;21.61;33.78;99278.13;4531539;28;20124;-49
2024/04/02 03:08:03;;;;;;;0.55;0.38;;;;;;;21.62;33.85;99273.22;4536145;28;20108;-53
2024/04/02 03:10:14;;;;;;;0.65;0.30;;;;;;;21.61;33.40;99272.38;4535490;28;20069;-54
2024/04/02 03:12:24;;;;;;;0.75;0.30;;;;;;;21.61;34.07;99269.50;4535001;28;20033;-50
2024/04/02 03:14:35;;;;;;;0.47;0.30;;;;;;;21.60;33.71;99282.22;4535100;28;20041;-51
2024/04/02 03:16:45;;;;;;;0.52;0.30;;;;;;;21.60;33.43;99276.47;4536477;28;20474;-50
2024/04/02 03:18:56;;;;;;;0.32;0.30;;;;;;;21.60;33.70;99285.09;4536883;28;20486;-51
2024/04/02 03:21:12;;;;;;;0.88;0.43;;;;;;;21.60;33.74;99287.13;4537130;28;20044;-51
2024/04/02 03:23:23;;;;;;;0.82;0.30;;;;;;;21.60;33.82;99293.72;4520745;28;20037;-50
2024/04/02 03:25:33;;;;;;;0.40;0.35;;;;;;;21.58;33.61;99284.66;4534949;28;22625;-50
2024/04/02 03:27:43;;;;;;;0.60;0.38;;;;;;;21.58;33.92;99296.16;4535441;28;20041;-50
2024/04/02 03:29:54;;;;;;;0.32;0.30;;;;;;;21.58;33.50;99287.53;4527987;28;20040;-53
2024/04/02 03:32:04;;;;;;;0.55;0.40;;;;;;;21.58;33.53;99293.28;4533234;28;20405;-53
2024/04/02 03:34:15;;;;;;;0.52;0.22;;;;;;;21.57;33.56;99294.53;4535324;28;20037;-53
2024/04/02 03:36:25;;;;;;;0.88;0.45;;;;;;;21.57;33.87;99287.94;4534941;28;20103;-50
2024/04/02 03:38:36;;;;;;;0.30;0.22;;;;;;;21.57;33.85;99285.06;4526600;28;22397;-52
2024/04/02 03:40:47;;;;;;;0.73;0.40;;;;;;;21.56;33.80;99292.91;4535745;28;20029;-50
2024/04/02 03:42:57;;;;;;;0.52;0.40;;;;;;;21.56;33.51;99287.16;4535802;28;20690;-49
2024/04/02 03:45:08;;;;;;;0.40;0.30;;;;;;;21.56;33.58;99292.91;4534504;28;20109;-51
2024/04/02 03:47:18;;;;;;;0.63;0.30;;;;;;;21.56;33.48;99292.06;4536617;28;20029;-49
2024/04/02 03:49:29;;;;;;;1.42;0.40;;;;;;;21.56;33.55;99286.31;4535367;28;20043;-50
2024/04/02 03:51:40;;;;;;;0.75;0.38;;;;;;;21.55;33.95;99291.22;4535068;28;20040;-49
2024/04/02 03:53:50;;;;;;;0.30;0.30;;;;;;;21.55;33.47;99294.09;4536356;28;20026;-50
2024/04/02 03:56:02;;;;;;;0.73;0.35;;;;;;;21.55;33.80;99293.28;4534479;28;20120;-50
2024/04/02 03:58:13;;;;;;;0.52;0.40;;;;;;;21.55;33.82;99291.22;4535708;28;20595;-52
2024/04/02 04:00:23;;;;;;;0.38;0.30;;;;;;;21.54;33.72;99292.47;4535314;28;20056;-54
2024/04/02 04:02:34;;;;;;;0.68;0.30;;;;;;;21.54;33.57;99295.34;4536433;28;20091;-50
2024/04/02 04:04:44;;;;;;;0.80;0.30;;;;;;;21.54;33.95;99294.50;4535553;28;20040;-51
2024/04/02 04:06:55;;;;;;;0.30;0.30;;;;;;;21.53;33.67;99299.41;4519647;28;20188;-53
2024/04/02 04:09:08;;;;;;;0.73;0.40;;;;;;;21.52;33.71;99303.53;4508652;28;20034;-53
2024/04/02 04:11:18;;;;;;;0.65;0.40;;;;;;;21.52;33.56;99306.41;4534618;28;20041;-52
2024/04/02 04:13:28;;;;;;;0.70;0.50;;;;;;;21.53;33.84;99310.91;4534177;28;20025;-51
2024/04/02 04:15:39;;;;;;;0.73;0.30;;;;;;;21.53;33.76;99305.16;4535860;28;20038;-50
2024/04/02 04:17:49;;;;;;;0.47;0.32;;;;;;;21.52;33.67;99309.28;4533344;28;20033;-49
2024/04/02 04:20:00;;;;;;;0.73;0.40;;;;;;;21.51;33.97;99304.75;4534690;28;20110;-50
2024/04/02 04:22:10;;;;;;;0.85;0.50;;;;;;;21.52;33.68;99315.00;4535316;28;20117;-49
2024/04/02 04:24:22;;;;;;;1.63;0.45;;;;;;;21.51;33.94;99313.38;4520168;28;20058;-52
2024/04/02 04:26:33;;;;;;;0.52;0.40;;;;;;;21.51;34.08;99319.13;4535543;28;20032;-50
2024/04/02 04:28:43;;;;;;;0.80;0.40;;;;;;;21.51;33.82;99322.00;4533652;28;20387;-54
2024/04/02 04:30:57;;;;;;;0.35;0.30;;;;;;;21.50;33.97;99323.19;4534468;28;20405;-51
2024/04/02 04:33:08;;;;;;;1.00;0.73;;;;;;;21.50;33.57;99331.81;4534899;28;20140;-51
2024/04/02 04:35:18;;;;;;;0.30;0.30;;;;;;;21.50;34.04;99336.75;4536894;28;20116;-50
2024/04/02 04:37:32;;;;;;;0.45;0.40;;;;;;;21.49;33.92;99341.66;4535019;28;22553;-50
2024/04/02 04:39:43;;;;;;;0.75;0.30;;;;;;;21.49;33.54;99335.91;4535567;28;20037;-51
2024/04/02 04:41:53;;;;;;;1.08;0.32;;;;;;;21.49;33.85;99330.19;4534029;28;20037;-51
2024/04/02 04:44:04;;;;;;;1.08;0.47;;;;;;;21.48;33.38;99337.16;4534911;28;20096;-51
2024/04/02 04:46:14;;;;;;;0.60;0.40;;;;;;;21.49;33.72;99338.78;4522497;28;20056;-54
2024/04/02 04:48:25;;;;;;;1.40;0.47;;;;;;;21.47;33.69;99341.22;4509162;28;20026;-52
2024/04/02 04:50:35;;;;;;;0.68;0.45;;;;;;;21.48;33.59;99340.03;4533637;28;20026;-54
2024/04/02 04:52:45;;;;;;;0.93;0.40;;;;;;;21.48;33.61;99347.81;4532903;28;28751;-50
2024/04/02 04:54:56;;;;;;;1.13;0.70;;;;;;;21.46;34.10;99345.34;4535401;28;20398;-50
2024/04/02 04:57:07;;;;;;;0.93;0.60;;;;;;;21.47;33.67;99351.91;4533704;28;20080;-52
2024/04/02 04:59:17;;;;;;;0.65;0.45;;;;;;;21.47;33.76;99352.72;4533362;28;20140;-50
2024/04/02 05:01:28;;;;;;;0.45;0.40;;;;;;;21.46;33.55;99359.69;4533173;28;20104;-50
2024/04/02 05:03:38;;;;;;;0.47;0.40;;;;;;;21.46;33.60;99365.44;4534035;28;20087;-50
2024/04/02 05:05:49;;;;;;;0.70;0.38;;;;;;;21.46;34.06;99361.72;4534359;28;20041;-49
2024/04/02 05:08:18;;;;;;;0.50;0.40;;;;;;;21.46;33.58;99364.59;4533722;28;20030;-51
2024/04/02 05:10:28;;;;;;;0.55;0.50;;;;;;;21.46;33.63;99368.31;4532934;28;20030;-51
2024/04/02 05:12:38;;;;;;;0.95;0.60;;;;;;;21.46;34.05;99367.47;4533536;28;20037;-50
2024/04/02 05:14:49;;;;;;;0.82;0.70;;;;;;;21.45;33.84;99372.41;4534413;28;20152;-50
2024/04/02 05:16:59;;;;;;;0.52;0.40;;;;;;;21.45;33.94;99377.31;4522669;28;20075;-50
2024/04/02 05:19:09;;;;;;;1.38;0.55;;;;;;;21.44;34.00;99376.50;4533431;28;20046;-49
2024/04/02 05:21:20;;;;;;;1.48;0.50;;;;;;;21.41;34.26;99370.72;4533526;28;20100;-50
2024/04/02 05:23:30;;;;;;;0.70;0.50;;;;;;;21.44;33.80;99387.13;4533397;28;20034;-49
2024/04/02 05:25:41;;;;;;;0.38;0.38;;;;;;;21.43;34.15;99389.22;4534182;28;20040;-50
2024/04/02 05:27:52;;;;;;;0.77;0.50;;;;;;;21.43;34.34;99397.81;4517951;28;20053;-49
2024/04/02 05:30:03;;;;;;;1.67;0.55;;;;;;;21.43;34.07;99397.00;4533358;28;20039;-54
2024/04/02 05:32:13;;;;;;;0.85;0.43;;;;;;;21.43;34.11;99394.94;4533638;28;20090;-49
2024/04/02 05:34:23;;;;;;;0.70;0.50;;;;;;;21.42;34.00;99395.34;4534164;28;20470;-49
2024/04/02 05:36:34;;;;;;;0.55;0.40;;;;;;;21.41;34.02;99403.13;4519516;28;20110;-49
2024/04/02 05:38:44;;;;;;;1.15;0.60;;;;;;;21.43;34.26;99415.03;4532796;28;20048;-50
2024/04/02 05:40:55;;;;;;;0.82;0.50;;;;;;;21.40;34.34;99404.38;4533250;28;23430;-50
2024/04/02 05:43:05;;;;;;;0.45;0.43;;;;;;;21.42;34.27;99412.56;4533548;28;20060;-49
2024/04/02 05:45:16;;;;;;;0.40;0.40;;;;;;;21.42;34.48;99415.44;4533011;28;20140;-49
2024/04/02 05:47:27;;;;;;;1.10;0.60;;;;;;;21.40;34.06;99410.09;4519310;28;20038;-52
2024/04/02 05:49:37;;;;;;;1.08;0.47;;;;;;;21.41;34.24;99422.41;4533250;28;20809;-50
2024/04/02 05:51:48;;;;;;;1.08;0.50;;;;;;;21.40;34.33;99418.72;4533510;28;20063;-50
2024/04/02 05:53:58;;;;;;;0.50;0.50;;;;;;;21.40;34.17;99417.88;4535332;28;20033;-50
2024/04/02 05:56:09;;;;;;;0.60;0.50;;;;;;;21.40;34.22;99415.84;4533588;28;20049;-53
2024/04/02 05:58:19;;;;;;;0.88;0.57;;;;;;;21.40;34.19;99415.84;4534874;28;20041;-49
2024/04/02 06:00:30;;;;;;;0.60;0.52;;;;;;;21.40;34.22;99421.59;4533381;28;20052;-50
2024/04/02 06:02:42;;;;;;;0.47;0.47;;;;;;;21.39;34.37;99425.66;4514658;28;20037;-52
2024/04/02 06:04:52;;;;;;;0.50;0.50;;;;;;;21.38;34.40;99429.78;4533106;28;20072;-50
2024/04/02 06:07:03;;;;;;;0.88;0.50;;;;;;;21.38;34.27;99424.03;4516170;28;20040;-51
2024/04/02 06:09:13;;;;;;;0.95;0.60;;;;;;;21.38;34.36;99424.03;4532183;28;20045;-50
2024/04/02 06:11:23;;;;;;;0.88;0.60;;;;;;;21.39;34.19;99424.88;4532696;28;20017;-49
2024/04/02 06:13:34;;;;;;;0.82;0.60;;;;;;;21.38;33.93;99424.03;4531877;28;20037;-51
2024/04/02 06:15:44;;;;;;;0.50;0.50;;;;;;;21.38;34.13;99429.78;4525435;28;20132;-50
2024/04/02 06:17:55;;;;;;;1.33;0.70;;;;;;;21.38;34.42;99429.78;4516800;28;20116;-49
2024/04/02 06:20:06;;;;;;;1.17;0.60;;;;;;;21.37;34.04;99436.75;4519365;28;20026;-50
2024/04/02 06:22:16;;;;;;;0.45;0.40;;;;;;;21.36;34.47;99435.09;4532642;28;20041;-49
2024/04/02 06:24:27;;;;;;;0.63;0.50;;;;;;;21.37;34.30;99441.66;4532491;28;21193;-53
2024/04/02 06:26:37;;;;;;;0.57;0.50;;;;;;;21.37;34.50;99442.50;4533370;28;20073;-50
2024/04/02 06:28:48;;;;;;;0.82;0.40;;;;;;;21.36;34.36;99437.94;4533555;28;20029;-51
2024/04/02 06:30:58;;;;;;;0.77;0.50;;;;;;;21.36;34.20;99443.69;4535067;28;20489;-50
2024/04/02 06:33:09;;;;;;;1.15;0.52;;;;;;;21.36;34.39;99455.19;4519451;28;20048;-52
2024/04/02 06:35:20;;;;;;;0.43;0.40;;;;;;;21.36;34.49;99443.69;4533573;28;20044;-50
2024/04/02 06:37:31;;;;;;;0.65;0.50;;;;;;;21.36;34.49;99457.25;4531278;28;20111;-50
2024/04/02 06:39:41;;;;;;;0.50;0.50;;;;;;;21.36;34.67;99455.19;4532819;28;20049;-49
2024/04/02 06:45:17;;;;;;;0.40;0.40;;;;;;;21.36;34.96;99465.84;4529746;28;20124;-53
2024/04/02 06:47:27;;;;;;;1.05;0.40;;;;;;;21.35;34.98;99464.19;4532968;28;20112;-49
2024/04/02 06:49:38;;;;;;;0.40;0.40;;;;;;;21.34;34.56;99466.25;4533040;28;20145;-50
2024/04/02 06:52:13;;;;;;;0.60;0.50;;;;;;;21.35;34.79;99478.53;4532448;28;20044;-50
2024/04/02 06:54:23;;;;;;;1.00;0.50;;;;;;;21.34;35.08;99479.78;4532704;28;20044;-50
2024/04/02 06:56:34;;;;;;;1.20;0.60;;;;;;;21.34;35.14;99480.59;4531945;28;20041;-53
2024/04/02 06:58:50;;;;;;;0.70;0.55;;;;;;;21.34;35.38;99486.34;4533352;28;20156;-50
2024/04/02 07:01:01;;;;;;;0.73;0.52;;;;;;;21.34;35.88;99486.34;4532133;28;20037;-50
2024/04/02 07:03:16;;;;;;;0.40;0.40;;;;;;;21.34;36.12;99486.34;4530973;28;20048;-50
2024/04/02 07:05:27;;;;;;;0.57;0.50;;;;;;;21.33;36.47;99478.94;4531811;28;20049;-51
2024/04/02 07:07:37;;;;;;;1.13;0.47;;;;;;;21.33;36.29;99487.56;4502786;28;20536;-50
2024/04/02 07:09:48;;;;;;;0.95;0.40;;;;;;;21.33;36.71;99490.41;4533072;28;20037;-50
2024/04/02 07:11:58;;;;;;;0.43;0.30;;;;;;;21.32;36.85;99485.91;4531776;28;20039;-54
2024/04/02 07:14:09;;;;;;;0.55;0.32;;;;;;;21.32;36.88;99494.53;4531312;28;20112;-50
2024/04/02 07:16:19;;;;;;;0.55;0.40;;;;;;;21.34;37.03;99497.00;4517978;28;20025;-50
2024/04/02 07:18:34;;;;;;;0.38;0.30;;;;;;;21.30;36.90;99499.84;4532420;28;20066;-51
2024/04/02 07:20:45;;;;;;;0.50;0.30;;;;;;;21.32;36.99;99502.31;4530948;28;20041;-49
2024/04/02 07:22:56;;;;;;;0.70;0.43;;;;;;;21.31;36.76;99510.09;4531058;28;20037;-51
2024/04/02 07:25:06;;;;;;;1.17;0.60;;;;;;;21.31;37.00;99504.34;4530216;28;24874;-53
2024/04/02 07:27:17;;;;;;;0.50;0.40;;;;;;;21.31;37.09;99510.09;4532166;28;20029;-50
2024/04/02 07:29:27;;;;;;;0.85;0.50;;;;;;;21.31;37.37;99509.28;4531710;28;20469;-54
2024/04/02 07:31:37;;;;;;;0.55;0.43;;;;;;;21.31;37.48;99512.94;4531694;28;20436;-50
2024/04/02 07:33:48;;;;;;;0.40;0.40;;;;;;;21.31;37.55;99515.03;4530394;28;20034;-50
2024/04/02 07:35:58;;;;;;;0.47;0.40;;;;;;;21.30;37.60;99517.06;4532265;28;20393;-50
2024/04/02 07:38:10;;;;;;;0.63;0.40;;;;;;;21.31;37.32;99517.88;4530577;28;20115;-51
2024/04/02 07:40:20;;;;;;;0.30;0.30;;;;;;;21.29;37.36;99524.03;4532058;28;20044;-52
2024/04/02 07:42:31;;;;;;;0.77;0.40;;;;;;;21.30;37.43;99525.66;4532548;28;20037;-50
2024/04/02 07:44:41;;;;;;;0.45;0.40;;;;;;;21.30;37.59;99531.41;4531578;28;20094;-52
2024/04/02 07:46:51;;;;;;;0.40;0.40;;;;;;;21.30;37.67;99525.66;4531514;28;20060;-52
2024/04/02 07:49:02;;;;;;;0.77;0.40;;;;;;;21.30;37.91;99530.56;4531703;28;20441;-51
2024/04/02 07:51:12;;;;;;;0.50;0.50;;;;;;;21.29;37.97;99532.63;4532759;28;20068;-50
2024/04/02 07:53:24;;;;;;;0.50;0.50;;;;;;;21.29;37.58;99534.66;4532817;28;20041;-50
2024/04/02 07:55:35;;;;;;;0.95;0.60;;;;;;;21.28;37.95;99539.56;4533790;28;20041;-50
2024/04/02 07:57:45;;;;;;;0.93;0.70;;;;;;;21.29;37.45;99541.25;4519145;28;20143;-50
2024/04/02 07:59:56;;;;;;;1.50;0.90;;;;;;;21.28;37.31;99551.06;4533835;28;20132;-50
2024/04/02 08:02:06;;;;;;;1.67;1.35;;;;;;;21.28;37.95;99548.19;4536201;28;20044;-50
2024/04/02 08:04:17;;;;;;;1.00;0.90;;;;;;;21.29;37.45;99549.03;4536500;28;20041;-50
2024/04/02 08:06:28;;;;;;;1.52;1.00;;;;;;;21.28;37.29;99551.06;4533378;28;20036;-50
2024/04/02 08:08:38;;;;;;;1.25;0.80;;;;;;;21.28;37.50;99556.81;4535567;28;20448;-51
2024/04/02 08:10:48;;;;;;;0.85;0.77;;;;;;;21.28;37.55;99556.81;4534513;28;20033;-50
2024/04/02 08:12:59;;;;;;;0.60;0.60;;;;;;;21.28;37.97;99553.94;4534598;28;20489;-50
2024/04/02 08:15:09;;;;;;;0.73;0.60;;;;;;;21.28;37.99;99571.16;4533803;28;20033;-54
2024/04/02 08:17:20;;;;;;;0.63;0.50;;;;;;;21.29;38.04;99569.13;4535384;28;20408;-50
2024/04/02 08:19:30;;;;;;;0.68;0.52;;;;;;;21.27;38.10;99558.03;4534183;28;20035;-50
2024/04/02 08:21:40;;;;;;;1.27;0.60;;;;;;;21.28;38.27;99562.53;4535819;28;20033;-50
2024/04/02 08:23:51;;;;;;;0.60;0.60;;;;;;;21.27;37.90;99566.66;4534207;28;20037;-50
2024/04/02 08:26:01;;;;;;;1.55;0.70;;;;;;;21.28;38.09;99565.41;4535042;28;20052;-51
2024/04/02 08:28:12;;;;;;;1.73;0.77;;;;;;;21.28;37.80;99576.09;4534239;28;20374;-50
2024/04/02 08:30:22;;;;;;;1.73;0.90;;;;;;;21.27;38.24;99572.38;4536451;28;20042;-54
2024/04/02 08:32:33;;;;;;;1.02;0.80;;;;;;;21.27;37.71;99568.69;4534441;28;20045;-54
2024/04/02 08:34:43;;;;;;;1.40;0.70;;;;;;;21.28;38.92;99570.34;4532341;28;20033;-50
2024/04/02 08:36:54;;;;;;;1.08;0.60;;;;;;;21.28;39.19;99578.97;4532921;28;20056;-50
2024/04/02 08:39:04;;;;;;;1.35;0.50;;;;;;;21.28;38.35;99574.03;4533733;28;20041;-54
2024/04/02 08:41:18;;;;;;;0.60;0.60;;;;;;;21.29;38.81;99575.69;4519776;28;20030;-52
2024/04/02 08:43:30;;;;;;;1.38;0.68;;;;;;;21.29;38.48;99587.16;4535004;28;20945;-51
2024/04/02 08:45:41;;;;;;;0.52;0.50;;;;;;;21.30;38.10;99583.06;4534468;28;20029;-55
2024/04/02 08:47:53;;;;;;;1.13;0.60;;;;;;;21.31;38.03;99583.91;4520726;28;20042;-53
2024/04/02 08:50:06;;;;;;;0.90;0.60;;;;;;;21.31;38.34;99587.56;4535102;28;20031;-51
2024/04/02 08:52:17;;;;;;;0.50;0.50;;;;;;;21.32;37.99;99591.28;4526190;28;20043;-53
2024/04/02 08:54:29;;;;;;;1.02;0.60;;;;;;;21.33;38.57;99595.78;4534242;28;20028;-53
2024/04/02 08:56:41;;;;;;;0.90;0.65;;;;;;;21.34;37.84;99594.59;4534535;28;20045;-54
2024/04/02 08:58:54;;;;;;;1.85;0.50;;;;;;;21.33;37.92;99593.75;4533007;28;20029;-55
2024/04/02 09:01:04;;;;;;;1.17;0.70;;;;;;;21.35;38.54;99593.34;4534755;28;20041;-51
2024/04/02 09:03:16;;;;;;;1.35;0.73;;;;;;;21.34;38.11;99601.16;4534371;28;20493;-51
2024/04/02 09:05:27;;;;;;;1.33;0.60;;;;;;;21.35;37.35;99599.09;4534232;28;20037;-51
2024/04/02 09:07:37;;;;;;;0.90;0.50;;;;;;;21.35;38.01;99597.06;4533395;28;20041;-54
2024/04/02 09:09:48;;;;;;;1.42;0.50;;;;;;;21.36;37.95;99603.63;4520874;28;20029;-55
2024/04/02 09:12:03;;;;;;;0.85;0.60;;;;;;;21.37;37.33;99603.25;4525265;28;20056;-54
2024/04/02 09:14:13;;;;;;;1.10;0.60;;;;;;;21.37;37.13;99603.25;4521784;28;23699;-54
2024/04/02 09:16:24;;;;;;;1.52;0.60;;;;;;;21.38;36.97;99604.03;4533537;28;20057;-61
2024/04/02 09:18:40;;;;;;;1.27;0.60;;;;;;;21.37;37.12;99605.28;4534107;28;20059;-65
2024/04/02 09:20:50;;;;;;;1.30;0.50;;;;;;;21.38;36.96;99607.75;4534089;28;20132;-65
2024/04/02 09:23:01;;;;;;;2.75;0.70;;;;;;;21.39;36.44;99603.63;4502677;28;20164;-63
2024/04/02 09:25:11;;;;;;;1.50;0.70;;;;;;;21.41;35.85;99623.34;4527657;28;20401;-63
2024/04/02 09:27:22;;;;;;;1.00;0.57;;;;;;;21.40;36.15;99604.47;4533437;28;20116;-63
2024/04/02 09:29:32;;;;;;;1.10;0.60;;;;;;;21.41;35.90;99609.81;4533596;28;20497;-52
2024/04/02 09:31:43;;;;;;;1.10;0.60;;;;;;;21.41;35.79;99608.97;4532974;28;20477;-53
2024/04/02 09:33:58;;;;;;;0.40;0.40;;;;;;;21.40;35.53;99616.78;4534269;28;20103;-53
2024/04/02 09:36:32;;;;;;;1.23;0.55;;;;;;;21.39;35.75;99614.31;4535554;28;20037;-53
2024/04/02 09:38:44;;;;;;;1.20;0.50;;;;;;;21.40;35.58;99615.97;4524754;28;20663;-50
2024/04/02 09:40:56;;;;;;;1.08;0.60;;;;;;;21.40;35.99;99621.69;4533469;28;20540;-53
2024/04/02 09:43:09;;;;;;;0.60;0.50;;;;;;;21.39;35.76;99609.38;4532030;28;20913;-50
2024/04/02 09:45:24;;;;;;;0.95;0.50;;;;;;;21.39;35.44;99615.13;4519796;28;20045;-54
2024/04/02 09:47:36;;;;;;;1.02;0.50;;;;;;;21.40;35.18;99615.97;4531775;28;20032;-52
2024/04/02 09:49:49;;;;;;;0.98;0.52;;;;;;;21.39;35.06;99620.88;4533696;28;20068;-50
2024/04/02 09:52:02;;;;;;;0.85;0.60;;;;;;;21.39;35.14;99623.75;4533467;28;20041;-53
2024/04/02 09:54:13;;;;;;;0.98;0.50;;;;;;;21.40;34.65;99615.97;4517617;28;20698;-52
2024/04/02 09:56:23;;;;;;;0.77;0.60;;;;;;;21.40;34.74;99621.69;4532864;28;20040;-51
2024/04/02 09:58:34;;;;;;;1.52;0.90;;;;;;;21.40;34.86;99621.69;4507993;28;20117;-50
2024/04/02 10:00:51;;;;;;;1.23;0.77;;;;;;;21.41;34.99;99627.03;4532471;28;20034;-53
2024/04/02 10:03:04;;;;;;;1.30;0.75;;;;;;;21.40;34.95;99622.53;4532249;28;20040;-53
2024/04/02 10:05:21;;;;;;;2.42;1.00;;;;;;;21.41;34.82;99624.16;4491650;28;20085;-54
2024/04/02 10:07:32;;;;;;;;;;;;;;;21.42;35.19;99630.75;4519554;28;20046;-53
2024/04/02 10:09:44;;;;;;;1.17;0.77;;;;;;;21.41;34.67;99635.66;4513866;28;19964;-53
2024/04/02 10:11:54;;;;;;;2.15;0.90;;;;;;;21.43;34.63;99635.25;4518038;28;20099;-55
2024/04/02 10:14:07;;;;;;;1.20;0.80;;;;;;;21.43;34.42;99636.09;4532931;28;20083;-54
2024/04/02 10:16:20;;;;;;;5.32;2.60;;;;;;;21.43;34.46;99638.97;4533645;28;20037;-52
2024/04/02 10:18:30;;;;;;;5.78;3.25;;;;;;;21.44;34.54;99634.84;4532560;28;20527;-54
2024/04/02 10:20:40;;;;;;;6.00;3.10;;;;;;;21.44;34.94;99629.13;4534512;28;20100;-52